createdAt,value
2023-05-25T00:03:20.414Z,56.57
2023-05-25T00:18:24.885Z,63.79
2023-05-25T00:33:27.884Z,55.00
2023-05-25T00:48:30.958Z,61.09
2023-05-25T01:03:37.865Z,55.45
2023-05-25T01:18:41.997Z,62.24
2023-05-25T01:33:45.468Z,54.92
2023-05-25T01:48:57.806Z,60.17
2023-05-25T02:04:01.194Z,54.99
2023-05-25T02:19:04.091Z,62.10
2023-05-25T02:34:06.752Z,55.65
2023-05-25T02:49:09.739Z,58.52
2023-05-25T03:04:12.520Z,60.65
2023-05-25T03:19:15.207Z,68.02
2023-05-25T03:34:18.283Z,56.67
2023-05-25T03:49:21.250Z,58.91
2023-05-25T04:04:24.150Z,59.57
2023-05-25T04:19:27.014Z,62.23
2023-05-25T04:34:29.779Z,56.21
2023-05-25T04:49:32.830Z,58.13
2023-05-25T05:04:37.346Z,62.57
2023-05-25T05:19:40.186Z,56.84
2023-05-25T05:34:42.822Z,57.78
2023-05-25T05:49:45.558Z,53.40
2023-05-25T06:04:48.144Z,57.58
2023-05-25T06:19:50.991Z,55.58
2023-05-25T06:34:55.487Z,58.50
2023-05-25T06:49:58.633Z,56.61
2023-05-25T07:05:02.772Z,56.24
2023-05-25T07:20:06.666Z,56.11
2023-05-25T07:35:09.633Z,58.56
2023-05-25T07:50:14.077Z,60.45
2023-05-25T08:05:17.249Z,56.87
2023-05-25T08:20:20.177Z,54.77
2023-05-25T08:35:23.260Z,56.44
2023-05-25T08:50:27.472Z,55.88
2023-05-25T09:05:30.163Z,55.13
2023-05-25T09:20:33.117Z,55.69
2023-05-25T09:35:36.116Z,54.43
2023-05-25T09:50:39.547Z,52.07
2023-05-25T10:05:42.230Z,47.54
2023-05-25T10:20:50.583Z,44.14
2023-05-25T10:36:02.984Z,45.13
2023-05-25T10:51:14.317Z,45.39
2023-05-25T11:06:18.720Z,45.80
2023-05-25T11:21:27.419Z,44.58
2023-05-25T11:36:33.603Z,46.06
2023-05-25T11:51:38.025Z,46.97
2023-05-25T12:06:40.857Z,46.40
2023-05-25T12:21:44.757Z,46.59
2023-05-25T12:36:52.657Z,47.32
2023-05-25T12:51:56.370Z,47.40
2023-05-25T13:06:59.029Z,46.92
2023-05-25T13:22:02.479Z,47.48
2023-05-25T13:37:06.162Z,48.01
2023-05-25T13:52:08.877Z,47.75
2023-05-25T14:07:12.388Z,48.28
2023-05-25T14:22:15.390Z,47.88
2023-05-25T14:37:18.175Z,46.75
2023-05-25T14:52:21.530Z,48.25
2023-05-25T15:07:24.211Z,48.51
2023-05-25T15:22:27.702Z,47.70
2023-05-25T15:37:30.511Z,47.81
2023-05-25T15:52:33.224Z,48.24
2023-05-25T16:07:36.054Z,48.78
2023-05-25T16:22:38.765Z,49.65
2023-05-25T16:37:41.477Z,50.41
2023-05-25T16:52:44.463Z,50.74
2023-05-25T17:07:47.181Z,51.17
2023-05-25T17:22:49.989Z,51.99
2023-05-25T17:37:52.709Z,52.40
2023-05-25T17:52:55.622Z,52.82
2023-05-25T18:07:58.504Z,53.76
2023-05-25T18:23:03.330Z,55.77
2023-05-25T18:38:09.041Z,57.46
2023-05-25T18:53:11.971Z,58.40
2023-05-25T19:08:16.188Z,53.80
2023-05-25T19:23:19.648Z,57.10
2023-05-25T19:38:26.623Z,54.31
2023-05-25T19:53:32.544Z,57.96
2023-05-25T20:08:36.845Z,54.91
2023-05-25T20:23:39.533Z,59.47
2023-05-25T20:38:43.459Z,54.67
2023-05-25T20:53:46.566Z,57.54
2023-05-25T21:08:50.629Z,63.47
2023-05-25T21:23:53.466Z,55.11
2023-05-25T21:38:56.423Z,60.40
2023-05-25T21:54:00.132Z,56.93
2023-05-25T22:09:02.944Z,61.38
2023-05-25T22:24:05.639Z,55.55
2023-05-25T22:39:09.004Z,58.18
2023-05-25T22:54:13.215Z,65.34
2023-05-25T23:09:16.248Z,54.40
2023-05-25T23:24:18.842Z,58.96
2023-05-25T23:39:21.587Z,55.09
2023-05-25T23:54:24.174Z,58.44
